F.r. Bigelow — WDB8153 — position and weather

sailwx.info

Track history (hours):
 
Tides and Currents Weather Stations Pressure Air Temp Water Temp Dewpoint Dewpoint Depression Visibility Wind Speed Wind Dir Waves Ship Positions

F.r. Bigelow

Owner: INGRAM BARGE COMPANY, Nashville, TN. More information available from US FCC via Universal Licensing System and Coast Guard Vessel Documentation Center.

Last reported at 2016-May-25 02:09 UTC. Time now 2016-May-28 08:04 UTC.
Position N 29°57' W 090°18'.

Length 46 m; draft 3.5 m.

Type: Tow > 200 m length. MMSI: 366953890.

Date/timePositionNaut miles runAvg speedWind from/ knotsBaromVisibWave heightAir tempDewpointWater temp
2016-May-25 02:09N 29°57' W 090°18'5 3.0
2016-May-25 00:33N 29°56' W 090°13'3 3.3
2016-May-24 23:33N 29°57' W 090°09'0 0.3
2016-May-24 22:33N 29°57' W 090°09'4 3.7
2016-May-24 21:33N 29°55' W 090°06'4 3.6
2016-May-24 20:34N 29°57' W 090°03'3 3.1
2016-May-24 19:34N 29°56' W 090°00'4 4.1
2016-May-24 18:34N 29°55' W 089°55'3 2.9
2016-May-24 17:33N 29°52' W 089°56'3 3.1
2016-May-24 16:33N 29°50' W 089°59'5 4.7
2016-May-24 15:29N 29°46' W 090°01'4 0.3
2016-May-24 04:08N 29°43' W 089°59'4 6.6
2016-May-24 03:33N 29°46' W 090°02'7 6.9
2016-May-24 02:33N 29°52' W 089°59'4 4.2
2016-May-24 01:33N 29°54' W 089°55'7 6.7
2016-May-24 00:33N 29°57' W 090°01'6 6.0
2016-May-23 23:33N 29°55' W 090°08'3 0.1
2016-May-22 09:33N 29°57' W 090°09'0 0.0
2016-May-22 08:23N 29°57' W 090°09'0 0.0
2016-May-22 07:33N 29°57' W 090°09'0 0.0
2016-May-22 06:20N 29°57' W 090°09'0 0.0
2016-May-22 05:33N 29°57' W 090°09'5 0.9
2016-May-21 23:23N 29°57' W 090°03'4 0.4
2016-May-21 13:33N 29°56' W 089°59'3 3.4
2016-May-21 12:33N 29°55' W 089°55'3 2.9
2016-May-21 11:33N 29°52' W 089°55'3 2.8
2016-May-21 10:33N 29°52' W 089°58'4 4.2
2016-May-21 09:34N 29°48' W 090°00'2 0.1
2016-May-20 15:31N 29°50' W 089°59'5 5.1
2016-May-20 14:33N 29°53' W 089°54'7 7.2
2016-May-20 13:34N 29°57' W 090°01'5 4.9
2016-May-20 12:33N 29°55' W 090°06'4 3.9
2016-May-20 11:33N 29°57' W 090°10'3 0.1
2016-May-18 08:29N 29°57' W 090°13'2 2.6
2016-May-18 07:32N 29°56' W 090°11'2 2.1
2016-May-18 06:33N 29°56' W 090°08'3 3.3
2016-May-18 05:33N 29°55' W 090°05'3 3.1
2016-May-18 04:33N 29°57' W 090°02'1 1.3
2016-May-18 03:33N 29°57' W 090°01'4 3.6
2016-May-18 02:33N 29°55' W 089°57'4 3.5
2016-May-18 01:33N 29°53' W 089°54'3 3.4
2016-May-18 00:33N 29°53' W 089°58'3 3.4
2016-May-17 23:33N 29°50' W 089°60'2 1.6
2016-May-17 22:33N 29°48' W 090°00'4 0.2
2016-May-17 04:32N 29°44' W 089°60'7 6.6
2016-May-17 03:33N 29°50' W 089°59'5 5.2
2016-May-17 02:30N 29°54' W 089°55'1 1.5
2016-May-17 01:33N 29°55' W 089°56'0 0.0
2016-May-17 00:26N 29°55' W 089°56'0 0.0
2016-May-16 23:17N 29°55' W 089°56'0 0.1
2016-May-16 22:33N 29°55' W 089°56'0 0.0
2016-May-16 21:34N 29°55' W 089°56'0 0.1
2016-May-16 20:17N 29°55' W 089°56'0 0.0
2016-May-16 19:33N 29°55' W 089°56'0 0.1
2016-May-16 18:33N 29°55' W 089°56'3 3.1
2016-May-16 17:28N 29°52' W 089°55'4 4.5
2016-May-16 16:33N 29°50' W 089°59'3 3.2
2016-May-16 15:33N 29°48' W 090°01'0 0.4
2016-May-16 14:33N 29°47' W 090°01'2 0.1
2016-May-15 19:32N 29°45' W 090°01'7 7.6
2016-May-15 18:33N 29°52' W 089°59'4 4.0
2016-May-15 17:33N 29°55' W 089°55'4 3.6
2016-May-15 16:33N 29°56' W 089°59'0 0.2
2016-May-15 15:33N 29°56' W 089°59'0 0.0
2016-May-15 14:33N 29°56' W 089°59'0 0.0
2016-May-15 13:33N 29°56' W 089°59'0 0.0
2016-May-15 12:33N 29°56' W 089°59'3 2.9
2016-May-15 11:33N 29°55' W 089°56'3 2.9
2016-May-15 10:24N 29°52' W 089°55'3 3.7
2016-May-15 09:33N 29°53' W 089°58'4 3.8
2016-May-15 08:33N 29°49' W 090°00'2 1.6
2016-May-15 07:33N 29°48' W 090°01'0 0.0
2016-May-15 06:33N 29°48' W 090°01'0 0.3
2016-May-15 05:33N 29°48' W 090°01'2 2.1
2016-May-15 04:33N 29°46' W 090°01'  
Track history (hours):
 
Tides and Currents Weather Stations Pressure Air Temp Water Temp Dewpoint Dewpoint Depression Visibility Wind Speed Wind Dir Waves Ship Positions

F.r. Bigelow

Owner: INGRAM BARGE COMPANY, Nashville, TN. More information available from US FCC via Universal Licensing System and Coast Guard Vessel Documentation Center.

Last reported at 2016-May-25 02:09 UTC. Time now 2016-May-28 08:04 UTC.
Position N 29°57' W 090°18'.

Length 46 m; draft 3.5 m.

Type: Tow > 200 m length. MMSI: 366953890.

Date/timePositionNaut miles runAvg speedWind from/ knotsBaromVisibWave heightAir tempDewpointWater temp
2016-May-25 02:09N 29°57' W 090°18'5 3.0
2016-May-25 00:33N 29°56' W 090°13'3 3.3
2016-May-24 23:33N 29°57' W 090°09'0 0.3
2016-May-24 22:33N 29°57' W 090°09'4 3.7
2016-May-24 21:33N 29°55' W 090°06'4 3.6
2016-May-24 20:34N 29°57' W 090°03'3 3.1
2016-May-24 19:34N 29°56' W 090°00'4 4.1
2016-May-24 18:34N 29°55' W 089°55'3 2.9
2016-May-24 17:33N 29°52' W 089°56'3 3.1
2016-May-24 16:33N 29°50' W 089°59'5 4.7
2016-May-24 15:29N 29°46' W 090°01'4 0.3
2016-May-24 04:08N 29°43' W 089°59'4 6.6
2016-May-24 03:33N 29°46' W 090°02'7 6.9
2016-May-24 02:33N 29°52' W 089°59'4 4.2
2016-May-24 01:33N 29°54' W 089°55'7 6.7
2016-May-24 00:33N 29°57' W 090°01'6 6.0
2016-May-23 23:33N 29°55' W 090°08'3 0.1
2016-May-22 09:33N 29°57' W 090°09'0 0.0
2016-May-22 08:23N 29°57' W 090°09'0 0.0
2016-May-22 07:33N 29°57' W 090°09'0 0.0
2016-May-22 06:20N 29°57' W 090°09'0 0.0
2016-May-22 05:33N 29°57' W 090°09'5 0.9
2016-May-21 23:23N 29°57' W 090°03'4 0.4
2016-May-21 13:33N 29°56' W 089°59'3 3.4
2016-May-21 12:33N 29°55' W 089°55'3 2.9
2016-May-21 11:33N 29°52' W 089°55'3 2.8
2016-May-21 10:33N 29°52' W 089°58'4 4.2
2016-May-21 09:34N 29°48' W 090°00'2 0.1
2016-May-20 15:31N 29°50' W 089°59'5 5.1
2016-May-20 14:33N 29°53' W 089°54'7 7.2
2016-May-20 13:34N 29°57' W 090°01'5 4.9
2016-May-20 12:33N 29°55' W 090°06'4 3.9
2016-May-20 11:33N 29°57' W 090°10'3 0.1
2016-May-18 08:29N 29°57' W 090°13'2 2.6
2016-May-18 07:32N 29°56' W 090°11'2 2.1
2016-May-18 06:33N 29°56' W 090°08'3 3.3
2016-May-18 05:33N 29°55' W 090°05'3 3.1
2016-May-18 04:33N 29°57' W 090°02'1 1.3
2016-May-18 03:33N 29°57' W 090°01'4 3.6
2016-May-18 02:33N 29°55' W 089°57'4 3.5
2016-May-18 01:33N 29°53' W 089°54'3 3.4
2016-May-18 00:33N 29°53' W 089°58'3 3.4
2016-May-17 23:33N 29°50' W 089°60'2 1.6
2016-May-17 22:33N 29°48' W 090°00'4 0.2
2016-May-17 04:32N 29°44' W 089°60'7 6.6
2016-May-17 03:33N 29°50' W 089°59'5 5.2
2016-May-17 02:30N 29°54' W 089°55'1 1.5
2016-May-17 01:33N 29°55' W 089°56'0 0.0
2016-May-17 00:26N 29°55' W 089°56'0 0.0
2016-May-16 23:17N 29°55' W 089°56'0 0.1
2016-May-16 22:33N 29°55' W 089°56'0 0.0
2016-May-16 21:34N 29°55' W 089°56'0 0.1
2016-May-16 20:17N 29°55' W 089°56'0 0.0
2016-May-16 19:33N 29°55' W 089°56'0 0.1
2016-May-16 18:33N 29°55' W 089°56'3 3.1
2016-May-16 17:28N 29°52' W 089°55'4 4.5
2016-May-16 16:33N 29°50' W 089°59'3 3.2
2016-May-16 15:33N 29°48' W 090°01'0 0.4
2016-May-16 14:33N 29°47' W 090°01'2 0.1
2016-May-15 19:32N 29°45' W 090°01'7 7.6
2016-May-15 18:33N 29°52' W 089°59'4 4.0
2016-May-15 17:33N 29°55' W 089°55'4 3.6
2016-May-15 16:33N 29°56' W 089°59'0 0.2
2016-May-15 15:33N 29°56' W 089°59'0 0.0
2016-May-15 14:33N 29°56' W 089°59'0 0.0
2016-May-15 13:33N 29°56' W 089°59'0 0.0
2016-May-15 12:33N 29°56' W 089°59'3 2.9
2016-May-15 11:33N 29°55' W 089°56'3 2.9
2016-May-15 10:24N 29°52' W 089°55'3 3.7
2016-May-15 09:33N 29°53' W 089°58'4 3.8
2016-May-15 08:33N 29°49' W 090°00'2 1.6
2016-May-15 07:33N 29°48' W 090°01'0 0.0
2016-May-15 06:33N 29°48' W 090°01'0 0.3
2016-May-15 05:33N 29°48' W 090°01'2 2.1
2016-May-15 04:33N 29°46' W 090°01'  

Dump ship's entire track history